Time;durP1;ratioP1;P1;durP2;ratioP2;P2;SDS_P1;SDS_P2;PMS_P1;PMS_P2;Temp;Humidity;BMP_temperature;BMP_pressure;BME280_temperature;BME280_humidity;BME280_pressure;Samples;Min_cycle;Max_cycle;Signal;HPM_P1;HPM_P2
2022/12/07 00:01:39;;;;;;;1.08;1.08;;;5.30;99.90;;;;;;5053040;28;20198;-79
2022/12/07 00:04:08;;;;;;;1.30;0.50;;;5.30;99.90;;;;;;5048274;28;20214;-81
2022/12/07 00:06:39;;;;;;;2.55;2.45;;;5.30;99.90;;;;;;5052011;28;20197;-76
2022/12/07 00:09:07;;;;;;;1.25;1.25;;;5.30;99.90;;;;;;5053375;28;20278;-80
2022/12/07 00:11:37;;;;;;;2.78;2.58;;;5.30;99.90;;;;;;5052950;28;20229;-81
2022/12/07 00:14:07;;;;;;;0.65;0.65;;;5.30;99.90;;;;;;5051792;28;20234;-79
2022/12/07 00:16:36;;;;;;;0.50;0.40;;;5.30;99.90;;;;;;5055555;28;20213;-80
2022/12/07 00:19:03;;;;;;;0.70;0.70;;;5.30;99.90;;;;;;5053841;28;20278;-82
2022/12/07 00:21:32;;;;;;;1.25;1.25;;;5.30;99.90;;;;;;5054541;28;20194;-79
2022/12/07 00:24:01;;;;;;;0.80;0.80;;;5.30;99.90;;;;;;5053397;28;20211;-81
2022/12/07 00:26:30;;;;;;;0.75;0.75;;;5.30;99.90;;;;;;5049675;28;20211;-78
2022/12/07 00:29:01;;;;;;;0.85;0.85;;;5.30;99.90;;;;;;5053610;28;20731;-79
2022/12/07 00:31:30;;;;;;;0.65;0.65;;;5.30;99.90;;;;;;5054403;28;20262;-79
2022/12/07 00:33:59;;;;;;;2.10;1.30;;;5.30;99.90;;;;;;5053780;28;20244;-80
2022/12/07 00:36:26;;;;;;;2.75;2.55;;;5.30;99.90;;;;;;5050644;28;20194;-81
2022/12/07 00:38:53;;;;;;;0.70;0.70;;;5.30;99.90;;;;;;5052336;28;20634;-78
2022/12/07 00:41:23;;;;;;;1.98;1.88;;;5.30;99.90;;;;;;5051767;28;20194;-79
2022/12/07 00:43:51;;;;;;;0.50;0.40;;;5.30;99.90;;;;;;5047052;28;20553;-78
2022/12/07 00:46:19;;;;;;;1.42;1.33;;;5.30;99.90;;;;;;5047927;28;20197;-76
2022/12/07 00:48:47;;;;;;;3.72;1.63;;;5.30;99.90;;;;;;5053494;28;20186;-81
2022/12/07 00:51:15;;;;;;;0.50;0.40;;;5.30;99.90;;;;;;5054630;28;20301;-80
2022/12/07 00:53:42;;;;;;;0.50;0.50;;;5.30;99.90;;;;;;5052277;28;20703;-80
2022/12/07 00:56:10;;;;;;;0.80;0.80;;;5.40;99.90;;;;;;5052784;28;20186;-79
2022/12/07 00:58:38;;;;;;;0.50;0.40;;;5.40;99.90;;;;;;5056342;28;20215;-80
2022/12/07 01:01:08;;;;;;;0.50;0.40;;;5.40;99.90;;;;;;5052904;28;20712;-81
2022/12/07 01:03:35;;;;;;;1.40;1.40;;;5.40;99.90;;;;;;5052782;28;20832;-79
2022/12/07 01:06:04;;;;;;;1.60;1.60;;;5.40;99.90;;;;;;5050828;28;20205;-80
2022/12/07 01:08:31;;;;;;;0.50;0.40;;;5.50;99.90;;;;;;5053530;28;20274;-79
2022/12/07 01:11:00;;;;;;;1.02;0.70;;;5.50;99.90;;;;;;5054874;28;20615;-80
2022/12/07 01:13:28;;;;;;;0.50;0.40;;;5.50;99.90;;;;;;5053216;28;20696;-79
2022/12/07 01:15:59;;;;;;;0.77;0.77;;;5.50;99.90;;;;;;5044309;28;20191;-80
2022/12/07 01:18:26;;;;;;;0.50;0.40;;;5.50;99.90;;;;;;5052940;28;20853;-79
2022/12/07 01:21:01;;;;;;;0.50;0.43;;;5.40;99.90;;;;;;5051397;28;20187;-80
2022/12/07 01:23:28;;;;;;;0.50;0.40;;;5.40;99.90;;;;;;5051830;28;20213;-80
2022/12/07 01:25:56;;;;;;;0.77;0.77;;;5.50;99.90;;;;;;5050176;28;20190;-79
2022/12/07 01:28:23;;;;;;;0.50;0.40;;;5.50;99.90;;;;;;5051607;28;20187;-81
2022/12/07 01:30:58;;;;;;;0.50;0.40;;;5.50;99.90;;;;;;5050994;28;20201;-80
2022/12/07 01:33:27;;;;;;;0.60;0.40;;;5.60;99.90;;;;;;5052222;28;20210;-81
2022/12/07 01:35:53;;;;;;;1.48;0.88;;;5.60;99.90;;;;;;5040932;28;20193;-81
2022/12/07 01:38:20;;;;;;;0.60;0.60;;;5.60;99.90;;;;;;5052775;28;20777;-80
2022/12/07 01:40:55;;;;;;;1.08;1.05;;;5.60;99.90;;;;;;5054372;28;20516;-80
2022/12/07 01:43:23;;;;;;;0.50;0.50;;;5.60;99.90;;;;;;5055164;28;20210;-81
2022/12/07 01:45:50;;;;;;;1.70;1.63;;;5.60;99.90;;;;;;5055613;28;20183;-81
2022/12/07 01:48:22;;;;;;;2.58;2.25;;;5.60;99.90;;;;;;5055589;28;20191;-79
2022/12/07 01:50:52;;;;;;;0.52;0.52;;;5.50;99.90;;;;;;5055156;28;20197;-83
2022/12/07 01:53:19;;;;;;;0.50;0.50;;;5.50;99.90;;;;;;5057293;28;20274;-82
2022/12/07 01:55:51;;;;;;;0.50;0.40;;;5.50;99.90;;;;;;5055770;28;20229;-79
2022/12/07 01:58:18;;;;;;;3.42;1.60;;;5.50;99.90;;;;;;5054674;28;20984;-80
2022/12/07 02:00:44;;;;;;;0.50;0.40;;;5.50;99.90;;;;;;5054919;28;20191;-80
2022/12/07 02:03:16;;;;;;;1.63;1.50;;;5.50;99.90;;;;;;5054676;28;20217;-80
2022/12/07 02:05:44;;;;;;;1.55;1.45;;;5.40;99.90;;;;;;5054446;28;20194;-81
2022/12/07 02:08:13;;;;;;;0.90;0.90;;;5.40;99.90;;;;;;5049243;28;20549;-80
2022/12/07 02:10:41;;;;;;;0.50;0.40;;;5.30;99.90;;;;;;5052654;28;20675;-80
2022/12/07 02:13:11;;;;;;;1.95;1.85;;;5.30;99.90;;;;;;5054839;28;20214;-80
2022/12/07 02:15:52;;;;;;;0.63;0.60;;;5.30;99.90;;;;;;5053302;28;20191;-81
2022/12/07 02:18:23;;;;;;;1.10;1.02;;;5.30;99.90;;;;;;5056814;28;20213;-79
2022/12/07 02:21:00;;;;;;;0.60;0.60;;;5.20;99.90;;;;;;5056415;28;20218;-81
2022/12/07 02:24:14;;;;;;;0.50;0.40;;;5.20;99.90;;;;;;5063878;28;20270;-80
2022/12/07 02:27:08;;;;;;;0.77;0.77;;;5.10;99.90;;;;;;5058143;28;20277;-81
2022/12/07 02:29:42;;;;;;;0.50;0.40;;;5.10;99.90;;;;;;5063197;28;20274;-81
2022/12/07 02:32:14;;;;;;;2.00;1.90;;;5.10;99.90;;;;;;5063492;28;20270;-80
2022/12/07 02:34:50;;;;;;;0.50;0.40;;;5.10;99.90;;;;;;5062897;28;20680;-81
2022/12/07 02:37:28;;;;;;;2.35;2.25;;;5.10;99.90;;;;;;5062886;28;20678;-80
2022/12/07 02:40:00;;;;;;;0.50;0.50;;;5.10;99.90;;;;;;5049530;28;20270;-77
2022/12/07 02:42:33;;;;;;;1.15;1.05;;;5.10;99.90;;;;;;5054463;28;20282;-79
2022/12/07 02:45:02;;;;;;;0.50;0.40;;;5.10;99.90;;;;;;5042758;28;20609;-80
2022/12/07 02:47:30;;;;;;;0.52;0.52;;;5.00;99.90;;;;;;5054287;28;20203;-80
2022/12/07 02:49:57;;;;;;;2.10;2.00;;;5.00;99.90;;;;;;5056605;28;20282;-80
2022/12/07 02:52:24;;;;;;;2.17;2.03;;;5.00;99.90;;;;;;5053354;28;20187;-80
2022/12/07 02:54:51;;;;;;;2.05;1.95;;;5.00;99.90;;;;;;5055915;28;20225;-79
2022/12/07 02:57:42;;;;;;;0.95;0.95;;;4.90;99.90;;;;;;5055455;28;20654;-80
2022/12/07 03:00:14;;;;;;;1.13;1.02;;;4.90;99.90;;;;;;5047316;28;20751;-79
2022/12/07 03:02:51;;;;;;;2.13;2.03;;;4.80;99.90;;;;;;5044956;28;20195;-79
2022/12/07 03:05:34;;;;;;;0.65;0.65;;;4.70;99.90;;;;;;5052850;28;20186;-80
2022/12/07 03:08:03;;;;;;;0.75;0.75;;;4.70;99.90;;;;;;5053303;28;20665;-79
2022/12/07 03:10:37;;;;;;;1.25;1.15;;;4.70;99.90;;;;;;5052706;28;20191;-79
2022/12/07 03:13:17;;;;;;;1.25;1.20;;;4.60;99.90;;;;;;5053136;28;20217;-80
2022/12/07 03:15:52;;;;;;;0.90;0.90;;;4.60;99.90;;;;;;5051353;28;20323;-80
2022/12/07 03:18:23;;;;;;;0.50;0.50;;;4.50;99.90;;;;;;5050406;28;20292;-78
2022/12/07 03:20:54;;;;;;;3.58;3.25;;;4.40;99.90;;;;;;5057918;28;20606;-78
2022/12/07 03:23:23;;;;;;;0.50;0.40;;;4.40;99.90;;;;;;5052174;28;20211;-79
2022/12/07 03:25:54;;;;;;;0.50;0.40;;;4.40;99.90;;;;;;5050480;28;20193;-79
2022/12/07 03:28:25;;;;;;;1.98;1.88;;;4.30;99.90;;;;;;5052764;28;20609;-79
2022/12/07 03:30:58;;;;;;;1.48;1.38;;;4.30;99.90;;;;;;5052387;28;20194;-79
2022/12/07 03:33:30;;;;;;;0.57;0.57;;;4.20;99.90;;;;;;5052519;28;20297;-79
2022/12/07 03:36:03;;;;;;;0.85;0.85;;;4.20;99.90;;;;;;5049738;28;20202;-79
2022/12/07 03:38:37;;;;;;;1.15;1.15;;;4.20;99.90;;;;;;5051524;28;20585;-79
2022/12/07 03:41:09;;;;;;;1.45;1.40;;;4.10;99.90;;;;;;5050849;28;20202;-78
2022/12/07 03:43:37;;;;;;;0.50;0.40;;;4.10;99.90;;;;;;5051734;28;20214;-80
2022/12/07 03:46:20;;;;;;;3.72;3.38;;;4.00;99.90;;;;;;5051912;28;20195;-81
2022/12/07 03:48:56;;;;;;;0.50;0.40;;;4.00;99.90;;;;;;5053297;28;20191;-79
2022/12/07 03:51:29;;;;;;;1.00;1.00;;;3.90;99.90;;;;;;5052515;28;20559;-80
2022/12/07 03:54:02;;;;;;;3.80;2.85;;;3.90;99.90;;;;;;5051508;28;20789;-78
2022/12/07 03:56:30;;;;;;;0.50;0.40;;;4.00;99.90;;;;;;5051912;28;20191;-80
2022/12/07 03:58:57;;;;;;;0.63;0.63;;;4.10;99.90;;;;;;5052051;28;20580;-79
2022/12/07 04:01:25;;;;;;;2.00;1.90;;;4.10;99.90;;;;;;5052576;28;20194;-80
2022/12/07 04:03:52;;;;;;;0.90;0.80;;;4.20;99.90;;;;;;5051846;28;20576;-78
2022/12/07 04:06:19;;;;;;;0.50;0.40;;;4.20;99.90;;;;;;5051944;28;20202;-80
2022/12/07 04:08:46;;;;;;;1.60;1.50;;;4.30;99.90;;;;;;5052192;28;20193;-79
2022/12/07 04:11:13;;;;;;;3.50;3.17;;;4.30;99.90;;;;;;5052088;28;20285;-80
2022/12/07 04:16:20;;;;;;;1.05;1.05;;;4.20;99.90;;;;;;5051273;28;20190;-80
2022/12/07 04:18:48;;;;;;;1.77;1.67;;;4.20;99.90;;;;;;5052671;28;20222;-79
2022/12/07 04:21:15;;;;;;;0.50;0.50;;;4.20;99.90;;;;;;5052799;28;20194;-80
2022/12/07 04:23:42;;;;;;;5.97;5.43;;;4.10;99.90;;;;;;5052327;28;20583;-82
2022/12/07 04:26:09;;;;;;;2.70;2.50;;;4.10;99.90;;;;;;5052074;28;20195;-78
2022/12/07 04:28:35;;;;;;;0.65;0.65;;;4.10;99.90;;;;;;5052338;28;20193;-79
2022/12/07 04:31:02;;;;;;;1.33;1.23;;;4.10;99.90;;;;;;5052795;28;20850;-80
2022/12/07 04:33:29;;;;;;;1.98;1.88;;;4.00;99.90;;;;;;5052204;28;20211;-79
2022/12/07 04:35:57;;;;;;;0.98;0.98;;;3.90;99.90;;;;;;5052512;28;20189;-80
2022/12/07 04:38:24;;;;;;;0.60;0.60;;;3.90;99.90;;;;;;5050471;28;20301;-80
2022/12/07 04:40:51;;;;;;;2.05;1.95;;;3.80;99.90;;;;;;5052778;28;20556;-79
2022/12/07 04:43:18;;;;;;;0.70;0.70;;;3.80;99.90;;;;;;5050853;28;20221;-80
2022/12/07 04:45:48;;;;;;;3.08;2.45;;;3.70;99.90;;;;;;5051220;28;20194;-81
2022/12/07 04:48:14;;;;;;;0.63;0.63;;;3.60;99.90;;;;;;5051092;28;20198;-79
2022/12/07 04:50:41;;;;;;;1.88;1.30;;;3.70;99.90;;;;;;5052296;28;20198;-79
2022/12/07 04:53:09;;;;;;;2.38;0.77;;;3.60;99.90;;;;;;5052191;28;20210;-79
2022/12/07 04:55:37;;;;;;;1.50;1.40;;;3.60;99.90;;;;;;5051748;28;20201;-80
2022/12/07 04:58:04;;;;;;;0.50;0.47;;;3.60;99.90;;;;;;5050972;28;20273;-79
2022/12/07 05:00:30;;;;;;;0.85;0.85;;;3.60;99.90;;;;;;5051871;28;20190;-80
2022/12/07 05:02:57;;;;;;;0.50;0.50;;;3.60;99.90;;;;;;5049931;28;20217;-80
2022/12/07 05:05:24;;;;;;;0.60;0.60;;;3.60;99.90;;;;;;5049250;28;20190;-79
2022/12/07 05:07:51;;;;;;;0.73;0.73;;;3.60;99.90;;;;;;5052203;28;20653;-80
2022/12/07 05:10:19;;;;;;;1.13;1.02;;;3.60;99.90;;;;;;5052046;28;20285;-78
2022/12/07 05:12:47;;;;;;;0.50;0.40;;;3.70;99.90;;;;;;5053378;28;20191;-78
2022/12/07 05:15:14;;;;;;;0.50;0.40;;;3.70;99.90;;;;;;5052766;28;20193;-79
2022/12/07 05:17:41;;;;;;;1.25;1.15;;;3.70;99.90;;;;;;5056085;28;20281;-79
2022/12/07 05:20:09;;;;;;;0.90;0.90;;;3.80;99.90;;;;;;5055911;28;20214;-80
2022/12/07 05:22:36;;;;;;;2.47;2.28;;;3.80;99.90;;;;;;5056153;28;20195;-80
2022/12/07 05:25:03;;;;;;;0.50;0.40;;;3.80;99.90;;;;;;5056205;28;20563;-79
2022/12/07 05:27:31;;;;;;;0.50;0.40;;;3.80;99.90;;;;;;5057824;28;20624;-78
2022/12/07 05:29:58;;;;;;;0.50;0.40;;;3.80;99.90;;;;;;5054750;28;20197;-78
2022/12/07 05:32:25;;;;;;;0.50;0.40;;;3.90;99.90;;;;;;5045375;28;20230;-80
2022/12/07 05:34:54;;;;;;;0.50;0.40;;;3.90;99.90;;;;;;5055291;28;20218;-78
2022/12/07 05:37:21;;;;;;;0.57;0.55;;;3.90;99.90;;;;;;5056818;28;20191;-80
2022/12/07 05:39:48;;;;;;;0.80;0.75;;;3.90;99.90;;;;;;5054804;28;20305;-80
2022/12/07 05:42:14;;;;;;;0.50;0.40;;;4.00;99.90;;;;;;5056370;28;20197;-79
2022/12/07 05:44:43;;;;;;;1.77;0.77;;;4.00;99.90;;;;;;5055907;28;20242;-79
2022/12/07 05:47:10;;;;;;;2.25;2.15;;;4.00;99.90;;;;;;5057084;28;20444;-80
2022/12/07 05:49:37;;;;;;;1.35;1.25;;;4.00;99.90;;;;;;5055152;28;20556;-80
2022/12/07 05:52:04;;;;;;;1.25;1.15;;;4.00;99.90;;;;;;5056268;28;20190;-80
2022/12/07 05:54:31;;;;;;;0.50;0.50;;;4.00;99.90;;;;;;5055962;28;20649;-79
2022/12/07 05:56:57;;;;;;;1.20;1.17;;;4.00;99.90;;;;;;5056507;28;20186;-78
2022/12/07 05:59:24;;;;;;;1.88;1.70;;;4.00;99.90;;;;;;5056361;28;20223;-80
2022/12/07 06:01:54;;;;;;;1.33;1.27;;;4.00;99.90;;;;;;5054741;28;20190;-80
2022/12/07 06:04:21;;;;;;;0.50;0.40;;;4.00;99.90;;;;;;5054832;28;20224;-79
2022/12/07 06:06:48;;;;;;;3.47;3.20;;;4.00;99.90;;;;;;5055334;28;20194;-79
2022/12/07 06:09:16;;;;;;;2.90;2.70;;;4.00;99.90;;;;;;5053964;28;20289;-80
2022/12/07 06:14:27;;;;;;;0.50;0.40;;;4.00;99.90;;;;;;5053374;28;20244;-79
2022/12/07 06:16:55;;;;;;;0.60;0.60;;;4.00;99.90;;;;;;5054579;28;20240;-79
2022/12/07 06:19:22;;;;;;;0.50;0.50;;;3.90;99.90;;;;;;5054802;28;20207;-80
2022/12/07 06:21:48;;;;;;;0.50;0.40;;;3.80;99.90;;;;;;5053158;28;20209;-79
2022/12/07 06:24:17;;;;;;;1.15;0.90;;;3.90;99.90;;;;;;5052982;28;20221;-78
2022/12/07 06:26:44;;;;;;;1.40;1.30;;;3.80;99.90;;;;;;5054305;28;20186;-78
2022/12/07 06:29:11;;;;;;;0.50;0.40;;;3.90;99.90;;;;;;5051211;28;20589;-78
2022/12/07 06:31:39;;;;;;;0.50;0.50;;;3.90;99.90;;;;;;5052969;28;20559;-80
2022/12/07 06:34:10;;;;;;;0.50;0.50;;;3.90;99.90;;;;;;5053648;28;20252;-78
2022/12/07 06:36:37;;;;;;;0.50;0.40;;;3.90;99.90;;;;;;5055148;28;20221;-81
2022/12/07 06:39:05;;;;;;;0.50;0.40;;;4.00;99.90;;;;;;5055223;28;20211;-80
2022/12/07 06:41:32;;;;;;;1.55;1.45;;;4.00;99.90;;;;;;5052647;28;20252;-79
2022/12/07 06:43:59;;;;;;;0.50;0.40;;;4.00;99.90;;;;;;5054019;28;20710;-79
2022/12/07 06:46:26;;;;;;;0.65;0.65;;;4.10;99.90;;;;;;5054654;28;20256;-79
2022/12/07 06:48:52;;;;;;;0.57;0.57;;;4.10;99.90;;;;;;5054960;28;20560;-79
2022/12/07 06:51:21;;;;;;;3.78;2.95;;;4.10;99.90;;;;;;5053734;28;20205;-81
2022/12/07 06:53:48;;;;;;;2.05;1.95;;;4.10;99.90;;;;;;5052199;28;20219;-78
2022/12/07 06:56:15;;;;;;;0.50;0.50;;;4.10;99.90;;;;;;5052708;28;20195;-79
2022/12/07 06:58:42;;;;;;;2.72;1.58;;;4.10;99.90;;;;;;5053460;28;20276;-81
2022/12/07 07:01:11;;;;;;;0.50;0.40;;;4.00;99.90;;;;;;5054147;28;20613;-79
2022/12/07 07:03:37;;;;;;;7.85;2.65;;;4.00;99.90;;;;;;5051423;28;20226;-82
2022/12/07 07:06:05;;;;;;;0.95;0.95;;;3.90;99.90;;;;;;5049241;28;20191;-81
2022/12/07 07:08:33;;;;;;;1.33;1.25;;;3.90;99.90;;;;;;5052660;28;20189;-79
2022/12/07 07:11:00;;;;;;;0.50;0.47;;;3.90;99.90;;;;;;5052167;28;20209;-76
2022/12/07 07:13:27;;;;;;;0.70;0.70;;;3.90;99.90;;;;;;5050614;28;20210;-81
2022/12/07 07:15:54;;;;;;;0.50;0.40;;;3.90;99.90;;;;;;5050181;28;20651;-78
2022/12/07 07:18:21;;;;;;;2.25;1.98;;;3.90;99.90;;;;;;5052589;28;20202;-78
2022/12/07 07:20:48;;;;;;;1.60;1.50;;;3.90;99.90;;;;;;5051492;28;20217;-78
2022/12/07 07:23:15;;;;;;;1.33;1.23;;;4.00;99.90;;;;;;5051922;28;20587;-79
2022/12/07 07:25:43;;;;;;;1.55;1.45;;;3.90;99.90;;;;;;5049903;28;20191;-79
2022/12/07 07:28:10;;;;;;;0.50;0.50;;;3.90;99.90;;;;;;5045051;28;20187;-78
2022/12/07 07:30:37;;;;;;;0.50;0.40;;;3.90;99.90;;;;;;5051695;28;20676;-78
2022/12/07 07:33:05;;;;;;;6.57;6.18;;;3.90;99.90;;;;;;5050525;28;20290;-80
2022/12/07 07:35:34;;;;;;;6.95;6.65;;;3.90;99.90;;;;;;5049886;28;20207;-78
2022/12/07 07:38:01;;;;;;;0.50;0.40;;;3.90;99.90;;;;;;5052084;28;20289;-80
2022/12/07 07:40:28;;;;;;;1.35;1.35;;;3.90;99.90;;;;;;5049433;28;20218;-80
2022/12/07 07:42:57;;;;;;;0.50;0.50;;;4.00;99.90;;;;;;5050705;28;20197;-79
2022/12/07 07:45:25;;;;;;;3.60;1.67;;;4.00;99.90;;;;;;5050585;28;20190;-78
2022/12/07 07:47:52;;;;;;;0.90;0.90;;;4.00;99.90;;;;;;5049333;28;20193;-77
2022/12/07 07:50:19;;;;;;;1.20;1.15;;;4.10;99.90;;;;;;5046154;28;20183;-80
2022/12/07 07:52:47;;;;;;;0.50;0.40;;;4.10;99.90;;;;;;4349742;28;10000817;-78
2022/12/07 07:55:14;;;;;;;0.50;0.40;;;4.10;99.90;;;;;;5045348;28;20719;-78
2022/12/07 07:57:42;;;;;;;1.45;1.35;;;4.10;99.90;;;;;;5048050;28;20192;-80
2022/12/07 08:00:13;;;;;;;3.80;2.20;;;4.20;99.90;;;;;;5051912;28;20237;-79
2022/12/07 08:02:40;;;;;;;4.22;2.88;;;4.20;99.90;;;;;;5046073;28;20194;-79
2022/12/07 08:05:08;;;;;;;0.90;0.90;;;4.30;99.90;;;;;;5047069;28;20228;-78
2022/12/07 08:07:35;;;;;;;2.47;1.67;;;4.40;99.90;;;;;;5049141;28;20640;-79
2022/12/07 08:10:02;;;;;;;0.50;0.40;;;4.40;99.90;;;;;;5046979;28;20194;-78
2022/12/07 08:12:28;;;;;;;0.50;0.40;;;4.40;99.90;;;;;;5046035;28;20195;-79
2022/12/07 08:14:55;;;;;;;0.50;0.40;;;4.50;99.90;;;;;;5045608;28;20218;-78
2022/12/07 08:17:24;;;;;;;0.60;0.60;;;4.60;99.90;;;;;;5046444;28;20207;-77
2022/12/07 08:19:51;;;;;;;4.15;0.80;;;4.70;99.90;;;;;;5047209;28;20210;-78
2022/12/07 08:22:18;;;;;;;0.73;0.73;;;4.70;99.90;;;;;;5047237;28;20199;-79
2022/12/07 08:24:45;;;;;;;0.50;0.40;;;4.70;99.90;;;;;;5045752;28;20321;-79
2022/12/07 08:27:12;;;;;;;3.30;3.03;;;4.70;99.90;;;;;;5045877;28;20222;-79
2022/12/07 08:29:39;;;;;;;0.50;0.40;;;4.70;99.90;;;;;;5047868;28;20225;-79
2022/12/07 08:32:06;;;;;;;0.60;0.55;;;4.70;99.90;;;;;;5046593;28;20204;-78
2022/12/07 08:34:34;;;;;;;0.50;0.40;;;4.70;99.90;;;;;;5046712;28;20233;-78
2022/12/07 08:37:01;;;;;;;12.18;3.25;;;4.70;99.90;;;;;;5046608;28;20205;-79
2022/12/07 08:39:28;;;;;;;2.05;1.77;;;4.70;99.90;;;;;;5047078;28;20584;-79
2022/12/07 08:41:55;;;;;;;1.60;1.50;;;4.70;99.90;;;;;;5046060;28;20195;-79
2022/12/07 08:44:22;;;;;;;1.55;1.50;;;4.70;99.90;;;;;;5047234;28;20217;-77
2022/12/07 08:46:53;;;;;;;0.90;0.90;;;4.70;99.90;;;;;;5047135;28;20661;-79
2022/12/07 08:49:24;;;;;;;2.05;1.95;;;4.60;99.90;;;;;;5047659;28;20197;-79
2022/12/07 08:51:52;;;;;;;35.40;1.67;;;4.60;99.90;;;;;;5046867;28;20195;-79
2022/12/07 08:54:20;;;;;;;1.33;1.23;;;4.50;99.90;;;;;;5036612;28;20291;-80
2022/12/07 08:56:48;;;;;;;4.20;3.55;;;4.50;99.90;;;;;;5050878;28;20194;-78
2022/12/07 08:59:18;;;;;;;3.72;1.92;;;4.60;99.90;;;;;;5051091;28;20635;-79
2022/12/07 09:01:45;;;;;;;3.40;2.85;;;4.80;99.90;;;;;;5050825;28;20228;-77
2022/12/07 09:04:11;;;;;;;0.50;0.40;;;4.90;99.90;;;;;;5049459;28;20210;-78
2022/12/07 09:06:39;;;;;;;0.50;0.50;;;5.00;99.90;;;;;;5046754;28;20568;-77
2022/12/07 09:09:09;;;;;;;0.50;0.50;;;5.00;99.90;;;;;;5054860;28;20198;-77
2022/12/07 09:11:36;;;;;;;2.60;2.45;;;5.10;99.90;;;;;;5044938;28;20248;-77
2022/12/07 09:14:03;;;;;;;0.95;0.90;;;5.10;99.90;;;;;;5040720;28;20215;-78
2022/12/07 09:16:29;;;;;;;0.95;0.85;;;5.00;99.90;;;;;;5048921;28;20199;-78
2022/12/07 09:18:56;;;;;;;0.95;0.95;;;5.10;99.90;;;;;;5052623;28;20284;-78
2022/12/07 09:21:23;;;;;;;4.72;0.60;;;5.30;99.90;;;;;;5052674;28;20298;-77
2022/12/07 09:23:50;;;;;;;0.70;0.70;;;5.60;99.90;;;;;;5053116;28;20218;-75
2022/12/07 09:26:18;;;;;;;2.47;2.28;;;5.80;99.90;;;;;;5053853;28;20660;-76
2022/12/07 09:28:45;;;;;;;0.50;0.50;;;5.90;99.90;;;;;;5049686;28;20395;-78
2022/12/07 09:31:12;;;;;;;5.85;2.08;;;6.00;99.90;;;;;;5044747;28;20196;-79
2022/12/07 09:33:39;;;;;;;1.02;1.02;;;6.00;99.90;;;;;;5047777;28;20722;-79
2022/12/07 09:36:06;;;;;;;0.50;0.40;;;6.10;99.90;;;;;;5051156;28;20258;-78
2022/12/07 09:38:33;;;;;;;2.58;2.47;;;6.10;99.90;;;;;;5052586;28;20201;-78
2022/12/07 09:41:06;;;;;;;0.50;0.40;;;6.10;99.90;;;;;;5051118;28;20206;-78
2022/12/07 09:43:36;;;;;;;0.80;0.80;;;6.20;99.90;;;;;;5044600;28;20226;-79
2022/12/07 09:46:04;;;;;;;0.52;0.52;;;6.30;99.90;;;;;;5052751;28;20277;-79
2022/12/07 09:48:33;;;;;;;0.50;0.40;;;6.20;99.90;;;;;;5053614;28;20277;-78
2022/12/07 09:51:01;;;;;;;0.50;0.40;;;6.20;99.90;;;;;;5042354;28;20734;-78
2022/12/07 09:53:30;;;;;;;0.50;0.40;;;6.20;99.90;;;;;;5050314;28;20210;-78
2022/12/07 09:55:57;;;;;;;0.50;0.40;;;6.30;99.90;;;;;;5050950;28;20191;-78
2022/12/07 09:58:27;;;;;;;1.15;1.05;;;6.30;99.90;;;;;;5053426;28;20193;-78
2022/12/07 10:00:59;;;;;;;0.50;0.40;;;6.30;99.90;;;;;;5053482;28;20261;-79
2022/12/07 10:03:28;;;;;;;0.57;0.57;;;6.30;99.90;;;;;;5052568;28;20214;-79
2022/12/07 10:05:55;;;;;;;0.73;0.73;;;6.30;99.90;;;;;;5040631;28;20203;-77
2022/12/07 10:08:22;;;;;;;2.45;2.35;;;6.20;99.90;;;;;;5033563;28;20198;-78
2022/12/07 10:10:52;;;;;;;0.93;0.90;;;6.20;99.90;;;;;;5031739;28;20262;-78
2022/12/07 10:13:22;;;;;;;2.47;2.28;;;6.20;99.90;;;;;;5029260;28;21102;-78
2022/12/07 10:15:52;;;;;;;0.60;0.60;;;6.50;99.90;;;;;;5028012;28;20206;-79
2022/12/07 10:18:31;;;;;;;0.65;0.65;;;6.80;99.90;;;;;;5035502;28;20569;-79
2022/12/07 10:21:13;;;;;;;0.50;0.50;;;7.20;99.90;;;;;;5032515;28;20216;-79
2022/12/07 10:23:41;;;;;;;3.90;3.80;;;7.40;99.90;;;;;;5036079;28;20215;-78
2022/12/07 10:26:32;;;;;;;0.85;0.85;;;7.60;99.90;;;;;;5045980;28;20186;-76
2022/12/07 10:29:02;;;;;;;0.50;0.40;;;7.60;99.90;;;;;;5033868;28;20202;-80
2022/12/07 10:31:30;;;;;;;0.50;0.40;;;7.70;99.90;;;;;;5035540;28;20197;-79
2022/12/07 10:34:00;;;;;;;2.78;1.80;;;7.80;99.90;;;;;;5040391;28;20249;-79
2022/12/07 10:36:35;;;;;;;0.60;0.60;;;8.00;99.90;;;;;;5034862;28;20191;-78
2022/12/07 10:39:04;;;;;;;0.50;0.40;;;8.10;99.90;;;;;;5046842;28;20194;-77
2022/12/07 10:41:31;;;;;;;13.73;2.42;;;8.40;99.90;;;;;;5045480;28;20693;-78
2022/12/07 10:43:58;;;;;;;0.77;0.77;;;8.70;99.90;;;;;;5035688;28;20222;-76
2022/12/07 10:46:43;;;;;;;1.08;0.82;;;8.70;99.90;;;;;;5038706;28;20486;-77
2022/12/07 10:49:32;;;;;;;2.20;2.10;;;8.70;99.90;;;;;;5050532;28;20210;-78
2022/12/07 10:52:06;;;;;;;3.35;2.55;;;8.60;99.90;;;;;;5032781;28;20188;-78
2022/12/07 10:54:45;;;;;;;1.02;1.02;;;8.30;99.90;;;;;;5034928;28;20242;-79
2022/12/07 10:57:28;;;;;;;0.50;0.50;;;8.10;99.90;;;;;;5042124;28;20191;-79
2022/12/07 11:00:03;;;;;;;0.60;0.60;;;7.90;99.90;;;;;;5031255;28;20753;-78
2022/12/07 11:02:41;;;;;;;0.50;0.50;;;7.90;99.90;;;;;;5043340;28;20193;-77
2022/12/07 11:05:22;;;;;;;0.50;0.40;;;7.80;99.90;;;;;;5038396;28;20218;-78
2022/12/07 11:07:58;;;;;;;0.50;0.40;;;7.80;99.90;;;;;;5046292;28;20187;-79
2022/12/07 11:10:29;;;;;;;0.52;0.45;;;7.80;99.90;;;;;;5047775;28;20206;-80
2022/12/07 11:13:22;;;;;;;0.50;0.40;;;7.70;99.90;;;;;;5051205;28;21075;-77
2022/12/07 11:16:17;;;;;;;0.50;0.40;;;7.70;99.90;;;;;;5049065;28;20201;-78
2022/12/07 11:18:53;;;;;;;0.50;0.40;;;7.70;99.90;;;;;;5050864;28;20186;-80
2022/12/07 11:21:27;;;;;;;0.50;0.40;;;7.50;99.90;;;;;;5049641;28;20202;-77
2022/12/07 11:24:02;;;;;;;0.50;0.40;;;7.40;99.90;;;;;;5047290;28;20590;-75
2022/12/07 11:26:43;;;;;;;0.50;0.40;;;7.30;99.90;;;;;;5050218;28;20703;-79
2022/12/07 11:29:27;;;;;;;4.90;1.98;;;7.30;99.90;;;;;;5050945;28;20227;-77
2022/12/07 11:32:06;;;;;;;0.77;0.60;;;7.20;99.90;;;;;;5051356;28;20183;-78
2022/12/07 11:34:40;;;;;;;0.95;0.63;;;7.00;99.90;;;;;;5048763;28;20283;-79
2022/12/07 11:37:14;;;;;;;0.50;0.40;;;7.00;99.90;;;;;;5050360;28;20191;-77
2022/12/07 11:39:48;;;;;;;0.60;0.57;;;7.10;99.90;;;;;;5047685;28;20185;-78
2022/12/07 11:42:20;;;;;;;2.08;1.98;;;7.10;99.90;;;;;;5051535;28;20224;-78
2022/12/07 11:44:54;;;;;;;0.50;0.40;;;7.30;99.90;;;;;;5052941;28;20297;-79
2022/12/07 11:47:28;;;;;;;0.50;0.40;;;7.50;99.90;;;;;;5051642;28;20191;-79
2022/12/07 11:49:59;;;;;;;0.50;0.43;;;7.70;99.90;;;;;;5044525;28;20284;-79
2022/12/07 11:52:38;;;;;;;0.50;0.40;;;7.70;99.90;;;;;;5049578;28;20680;-79
2022/12/07 11:55:14;;;;;;;0.50;0.50;;;7.70;99.90;;;;;;5050873;28;20206;-79
2022/12/07 11:57:45;;;;;;;0.50;0.40;;;7.80;99.90;;;;;;5051152;28;20197;-78
2022/12/07 12:00:16;;;;;;;0.50;0.40;;;7.80;99.90;;;;;;5048172;28;20190;-79
2022/12/07 12:02:50;;;;;;;0.50;0.40;;;7.70;99.90;;;;;;5051750;28;20273;-78
2022/12/07 12:05:20;;;;;;;0.50;0.40;;;7.70;99.90;;;;;;5050041;28;20281;-78
2022/12/07 12:07:55;;;;;;;0.50;0.40;;;7.80;99.90;;;;;;5051507;28;20706;-77
2022/12/07 12:10:28;;;;;;;0.93;0.60;;;7.80;99.90;;;;;;5051709;28;20193;-78
2022/12/07 12:13:21;;;;;;;0.50;0.40;;;7.70;99.90;;;;;;5049219;28;20254;-78
2022/12/07 12:16:14;;;;;;;1.35;1.25;;;7.60;99.90;;;;;;5050022;28;20195;-79
2022/12/07 12:18:57;;;;;;;0.77;0.60;;;7.50;99.90;;;;;;5052539;28;20193;-77
2022/12/07 12:21:29;;;;;;;0.50;0.50;;;7.50;99.90;;;;;;5050607;28;20814;-79
2022/12/07 12:24:01;;;;;;;0.50;0.40;;;7.50;99.90;;;;;;5049513;28;20305;-77
2022/12/07 12:26:31;;;;;;;0.60;0.60;;;7.50;99.90;;;;;;5046557;28;20820;-79
2022/12/07 12:29:01;;;;;;;0.50;0.40;;;7.40;99.90;;;;;;5051617;28;20232;-78
2022/12/07 12:31:38;;;;;;;1.17;1.08;;;7.40;99.90;;;;;;5052224;28;20191;-79
2022/12/07 12:34:34;;;;;;;0.80;0.75;;;7.30;99.90;;;;;;5047316;28;20295;-78
2022/12/07 12:37:02;;;;;;;1.15;1.05;;;7.30;99.90;;;;;;5051859;28;20191;-78
2022/12/07 12:39:30;;;;;;;0.82;0.82;;;7.20;99.90;;;;;;5050720;28;20229;-78
2022/12/07 12:42:08;;;;;;;0.50;0.40;;;7.20;99.90;;;;;;5050291;28;20217;-78
2022/12/07 12:44:43;;;;;;;0.50;0.40;;;7.20;99.90;;;;;;5048405;28;20218;-79
2022/12/07 12:47:42;;;;;;;0.50;0.40;;;7.30;99.90;;;;;;5050712;28;20186;-78
2022/12/07 12:50:18;;;;;;;0.50;0.47;;;7.30;99.90;;;;;;5046217;28;20237;-80
2022/12/07 12:53:17;;;;;;;0.50;0.47;;;7.40;99.90;;;;;;5052422;28;20257;-78
2022/12/07 12:56:11;;;;;;;0.50;0.40;;;7.40;99.90;;;;;;5049350;28;20886;-78
2022/12/07 12:58:41;;;;;;;2.22;1.90;;;7.40;99.90;;;;;;5049691;28;20266;-80
2022/12/07 13:01:40;;;;;;;0.57;0.55;;;7.30;99.90;;;;;;5045626;28;20237;-78
2022/12/07 13:04:24;;;;;;;0.50;0.40;;;7.30;99.90;;;;;;5047873;28;20723;-76
2022/12/07 13:06:51;;;;;;;0.70;0.70;;;7.20;99.90;;;;;;5051318;28;20735;-78
2022/12/07 13:09:25;;;;;;;0.50;0.40;;;7.20;99.90;;;;;;5048423;28;20766;-78
2022/12/07 13:12:00;;;;;;;0.77;0.77;;;7.10;99.90;;;;;;5049684;28;20552;-79
2022/12/07 13:14:55;;;;;;;0.50;0.40;;;7.10;99.90;;;;;;5055911;28;20737;-78
2022/12/07 13:18:00;;;;;;;0.93;0.93;;;7.10;99.90;;;;;;5032354;28;20191;-80
2022/12/07 13:20:50;;;;;;;0.50;0.40;;;7.10;99.90;;;;;;5046681;28;20213;-80
2022/12/07 13:23:36;;;;;;;0.50;0.50;;;7.20;99.90;;;;;;5048038;28;20298;-79